»·PEaware :: N653TB KRNM-KSAN

N653TB :: KRNM-KSAN

FLIGHT INFORMATION

Flight Status: Arrived
Operator: Privately registered:
United States
More flights under this callsign
Pilot: Sergei F. (8485)
Aircraft: SOCATA TBM-900
(TBM9)
More flights by this aircraft type
Origin: KRNM Ramona
United States
Destination: KSAN San Diego Intl-Lindbergh
United States
More flights between these airports :: More routes between these airports
Route: +ROBNN V208 OCN V23 MZB V66 RYAHH
File this flight plan on PilotEdge
Remarks:
Altitude:
(Current/Filed)
8,000ft
Speed:
(Current/Filed)
200kts
Departed: 28-Aug-20 07:56 PM
Arrived: 28-Aug-20 08:11 PM
Distance/Time
Traveled:
23nm/0:15
Distance/Time
To Go:
Arrived

Flight Plot

Page will automatically refresh every two minutes.


Map Options




Map Legend


Flown Route
Filed Route
Departure Airport
Arrival Airport
Navaid (VOR, NDB)
Fix

Horizontal Profiles

Position Reports

Time Latitude Longitude Heading Altitude Ground
Speed
28-Aug-20 19:32 33.041977 -116.917756 92 1392ft 0kts
28-Aug-20 19:33 33.041977 -116.917756 92 1392ft 0kts
28-Aug-20 19:34 33.041977 -116.917756 92 1392ft 0kts
28-Aug-20 19:35 33.041977 -116.917756 92 1392ft 0kts
28-Aug-20 19:36 33.041977 -116.917756 92 1392ft 0kts
28-Aug-20 19:37 33.041977 -116.917756 92 1392ft 0kts
28-Aug-20 19:38 33.041977 -116.917756 92 1392ft 0kts
28-Aug-20 19:39 33.041977 -116.917756 92 1392ft 0kts
28-Aug-20 19:40 33.041977 -116.917756 92 1392ft 0kts
28-Aug-20 19:41 33.041977 -116.917756 92 1392ft 0kts
28-Aug-20 19:42 33.041977 -116.917756 92 1392ft 0kts
28-Aug-20 19:43 33.041977 -116.917756 92 1392ft 0kts
28-Aug-20 19:44 33.041977 -116.917756 92 1392ft 0kts
28-Aug-20 19:45 33.041977 -116.917756 92 1392ft 0kts
28-Aug-20 19:46 33.041977 -116.917756 92 1392ft 0kts
28-Aug-20 19:47 33.041977 -116.917756 92 1392ft 0kts
28-Aug-20 19:48 33.041975 -116.917734 96 1392ft 0kts
28-Aug-20 19:49 33.041762 -116.917617 188 1391ft 0kts
28-Aug-20 19:50 33.041068 -116.917617 170 1391ft 3kts
28-Aug-20 19:51 33.040077 -116.916712 99 1391ft 8kts
28-Aug-20 19:52 33.039424 -116.912348 99 1391ft 15kts
28-Aug-20 19:54 33.038846 -116.908422 100 1390ft 10kts
28-Aug-20 19:55 33.038070 -116.907775 258 1388ft 8kts
28-Aug-20 19:56 33.042965 -116.935892 275 2300ft 122kts
28-Aug-20 19:57 33.048962 -116.976248 279 4173ft 147kts
28-Aug-20 19:58 33.056944 -117.032145 254 4978ft 203kts
28-Aug-20 19:59 33.024846 -117.041712 161 4984ft 212kts
28-Aug-20 20:00 32.978049 -117.018923 160 4963ft 199kts
28-Aug-20 20:01 32.926810 -116.993851 160 4979ft 208kts
28-Aug-20 20:02 32.869964 -116.966491 160 4972ft 226kts
28-Aug-20 20:03 32.812892 -116.949498 181 4837ft 205kts
28-Aug-20 20:04 32.754841 -116.948250 181 4105ft 208kts
28-Aug-20 20:05 32.709433 -116.967223 263 3937ft 175kts
28-Aug-20 20:06 32.721376 -117.020237 288 3563ft 149kts
28-Aug-20 20:07 32.726148 -117.066428 265 2635ft 135kts
28-Aug-20 20:08 32.719114 -117.106982 262 1492ft 118kts
28-Aug-20 20:09 32.721042 -117.141630 289 928ft 97kts
28-Aug-20 20:09 32.727791 -117.166277 289 334ft 89kts
28-Aug-20 20:11 32.733363 -117.188213 344 20ft 6kts
28-Aug-20 20:12 32.734248 -117.187816 94 20ft 6kts
28-Aug-20 20:12 32.733367 -117.184156 106 20ft 18kts
28-Aug-20 20:14 32.732773 -117.179809 19 20ft 4kts
28-Aug-20 20:14 32.734254 -117.178928 129 20ft 7kts
28-Aug-20 20:15 32.733946 -117.178672 146 20ft 0kts
28-Aug-20 20:17 32.733946 -117.178672 146 20ft 0kts
28-Aug-20 20:17 32.733946 -117.178672 146 20ft 0kts
28-Aug-20 20:18 32.733946 -117.178672 146 20ft 0kts
28-Aug-20 20:19 32.733946 -117.178672 146 20ft 0kts
28-Aug-20 20:20 32.733946 -117.178672 146 20ft 0kts
28-Aug-20 20:21 32.733933 -117.178712 92 20ft 0kts
28-Aug-20 20:22 32.733851 -117.178970 54 20ft 0kts
28-Aug-20 20:23 32.733644 -117.179002 332 20ft 0kts
28-Aug-20 20:24 32.733507 -117.178902 325 20ft 0kts
28-Aug-20 20:25 32.733507 -117.178902 325 20ft 0kts

Navigation Log

Ident Type
Flight plan parsing failed, navigation log unavailable